sensor_id;sensor_type;location;lat;lon;timestamp;temperature;humidity
21355;DHT22;10835;50.148;19.760;2023-04-22T00:01:00;21.10;41.00
21355;DHT22;10835;50.148;19.760;2023-04-22T00:03:28;21.30;41.90
21355;DHT22;10835;50.148;19.760;2023-04-22T00:05:57;21.50;41.20
21355;DHT22;10835;50.148;19.760;2023-04-22T00:08:26;20.90;40.90
21355;DHT22;10835;50.148;19.760;2023-04-22T00:10:54;21.40;41.40
21355;DHT22;10835;50.148;19.760;2023-04-22T00:13:23;21.90;41.20
21355;DHT22;10835;50.148;19.760;2023-04-22T00:15:52;22.00;40.10
21355;DHT22;10835;50.148;19.760;2023-04-22T00:18:20;22.20;39.20
21355;DHT22;10835;50.148;19.760;2023-04-22T00:20:49;22.40;39.20
21355;DHT22;10835;50.148;19.760;2023-04-22T00:23:17;22.60;38.60
21355;DHT22;10835;50.148;19.760;2023-04-22T00:25:45;22.40;39.50
21355;DHT22;10835;50.148;19.760;2023-04-22T00:28:16;22.60;39.60
21355;DHT22;10835;50.148;19.760;2023-04-22T00:30:44;21.90;38.80
21355;DHT22;10835;50.148;19.760;2023-04-22T00:33:14;21.70;39.80
21355;DHT22;10835;50.148;19.760;2023-04-22T00:35:42;21.90;39.40
21355;DHT22;10835;50.148;19.760;2023-04-22T00:38:11;22.00;39.60
21355;DHT22;10835;50.148;19.760;2023-04-22T00:40:39;22.30;40.10
21355;DHT22;10835;50.148;19.760;2023-04-22T00:43:08;22.30;39.60
21355;DHT22;10835;50.148;19.760;2023-04-22T00:45:36;21.70;39.40
21355;DHT22;10835;50.148;19.760;2023-04-22T00:48:04;20.90;40.00
21355;DHT22;10835;50.148;19.760;2023-04-22T00:50:34;20.60;41.20
21355;DHT22;10835;50.148;19.760;2023-04-22T00:53:02;21.00;41.90
21355;DHT22;10835;50.148;19.760;2023-04-22T00:55:33;21.50;40.80
21355;DHT22;10835;50.148;19.760;2023-04-22T00:58:02;21.70;40.40
21355;DHT22;10835;50.148;19.760;2023-04-22T01:00:31;21.10;40.60
21355;DHT22;10835;50.148;19.760;2023-04-22T01:03:01;21.50;41.20
21355;DHT22;10835;50.148;19.760;2023-04-22T01:05:30;21.60;40.40
21355;DHT22;10835;50.148;19.760;2023-04-22T01:08:01;21.80;40.50
21355;DHT22;10835;50.148;19.760;2023-04-22T01:10:29;21.70;40.50
21355;DHT22;10835;50.148;19.760;2023-04-22T01:12:57;22.00;40.00
21355;DHT22;10835;50.148;19.760;2023-04-22T01:15:25;21.30;40.30
21355;DHT22;10835;50.148;19.760;2023-04-22T01:17:55;21.70;39.90
21355;DHT22;10835;50.148;19.760;2023-04-22T01:20:27;21.60;40.10
21355;DHT22;10835;50.148;19.760;2023-04-22T01:22:57;21.60;40.10
21355;DHT22;10835;50.148;19.760;2023-04-22T01:25:31;21.10;40.20
21355;DHT22;10835;50.148;19.760;2023-04-22T01:28:01;21.60;40.80
21355;DHT22;10835;50.148;19.760;2023-04-22T01:30:30;21.60;40.00
21355;DHT22;10835;50.148;19.760;2023-04-22T01:32:58;21.60;40.60
21355;DHT22;10835;50.148;19.760;2023-04-22T01:35:28;21.90;39.90
21355;DHT22;10835;50.148;19.760;2023-04-22T01:38:02;21.70;39.70
21355;DHT22;10835;50.148;19.760;2023-04-22T01:40:33;21.70;40.20
21355;DHT22;10835;50.148;19.760;2023-04-22T01:43:01;22.00;39.80
21355;DHT22;10835;50.148;19.760;2023-04-22T01:45:30;21.30;40.00
21355;DHT22;10835;50.148;19.760;2023-04-22T01:47:58;20.80;40.40
21355;DHT22;10835;50.148;19.760;2023-04-22T01:50:26;20.90;41.40
21355;DHT22;10835;50.148;19.760;2023-04-22T01:52:55;20.70;41.50
21355;DHT22;10835;50.148;19.760;2023-04-22T01:55:27;20.30;41.90
21355;DHT22;10835;50.148;19.760;2023-04-22T01:57:56;20.80;42.20
21355;DHT22;10835;50.148;19.760;2023-04-22T02:00:24;21.00;41.20
21355;DHT22;10835;50.148;19.760;2023-04-22T02:02:53;21.10;41.00
21355;DHT22;10835;50.148;19.760;2023-04-22T02:05:23;21.30;40.70
21355;DHT22;10835;50.148;19.760;2023-04-22T02:07:51;21.40;40.60
21355;DHT22;10835;50.148;19.760;2023-04-22T02:10:20;20.90;40.50
21355;DHT22;10835;50.148;19.760;2023-04-22T02:12:48;20.90;41.20
21355;DHT22;10835;50.148;19.760;2023-04-22T02:15:18;21.20;41.40
21355;DHT22;10835;50.148;19.760;2023-04-22T02:17:46;20.80;40.80
21355;DHT22;10835;50.148;19.760;2023-04-22T02:20:16;21.00;41.10
21355;DHT22;10835;50.148;19.760;2023-04-22T02:22:44;21.00;40.90
21355;DHT22;10835;50.148;19.760;2023-04-22T02:25:13;21.10;40.90
21355;DHT22;10835;50.148;19.760;2023-04-22T02:27:41;21.40;40.30
21355;DHT22;10835;50.148;19.760;2023-04-22T02:30:11;20.90;40.70
21355;DHT22;10835;50.148;19.760;2023-04-22T02:32:40;20.30;41.20
21355;DHT22;10835;50.148;19.760;2023-04-22T02:35:09;20.60;42.00
21355;DHT22;10835;50.148;19.760;2023-04-22T02:37:38;20.30;41.60
21355;DHT22;10835;50.148;19.760;2023-04-22T02:40:07;20.60;41.90
21355;DHT22;10835;50.148;19.760;2023-04-22T02:42:35;20.90;42.00
21355;DHT22;10835;50.148;19.760;2023-04-22T02:45:04;21.10;40.90
21355;DHT22;10835;50.148;19.760;2023-04-22T02:47:34;21.30;40.60
21355;DHT22;10835;50.148;19.760;2023-04-22T02:50:06;21.30;40.80
21355;DHT22;10835;50.148;19.760;2023-04-22T02:52:34;21.30;40.60
21355;DHT22;10835;50.148;19.760;2023-04-22T02:55:03;21.40;40.30
21355;DHT22;10835;50.148;19.760;2023-04-22T02:57:31;21.30;40.20
21355;DHT22;10835;50.148;19.760;2023-04-22T03:00:00;21.50;40.10
21355;DHT22;10835;50.148;19.760;2023-04-22T03:02:28;21.30;40.00
21355;DHT22;10835;50.148;19.760;2023-04-22T03:05:13;21.30;40.10
21355;DHT22;10835;50.148;19.760;2023-04-22T03:07:41;20.40;40.50
21355;DHT22;10835;50.148;19.760;2023-04-22T03:10:10;20.00;41.40
21355;DHT22;10835;50.148;19.760;2023-04-22T03:12:39;20.20;42.30
21355;DHT22;10835;50.148;19.760;2023-04-22T03:15:08;20.40;42.20
21355;DHT22;10835;50.148;19.760;2023-04-22T03:17:37;20.60;41.70
21355;DHT22;10835;50.148;19.760;2023-04-22T03:20:09;20.80;41.50
21355;DHT22;10835;50.148;19.760;2023-04-22T03:22:40;20.90;41.20
21355;DHT22;10835;50.148;19.760;2023-04-22T03:25:10;20.90;40.80
21355;DHT22;10835;50.148;19.760;2023-04-22T03:27:43;20.60;40.70
21355;DHT22;10835;50.148;19.760;2023-04-22T03:30:12;20.10;41.40
21355;DHT22;10835;50.148;19.760;2023-04-22T03:32:40;19.80;42.10
21355;DHT22;10835;50.148;19.760;2023-04-22T03:35:31;19.70;42.20
21355;DHT22;10835;50.148;19.760;2023-04-22T03:38:02;19.40;42.70
21355;DHT22;10835;50.148;19.760;2023-04-22T03:40:33;19.50;43.30
21355;DHT22;10835;50.148;19.760;2023-04-22T03:43:07;19.80;43.20
21355;DHT22;10835;50.148;19.760;2023-04-22T03:45:36;20.10;42.90
21355;DHT22;10835;50.148;19.760;2023-04-22T03:48:14;20.30;42.40
21355;DHT22;10835;50.148;19.760;2023-04-22T03:50:47;20.50;42.40
21355;DHT22;10835;50.148;19.760;2023-04-22T03:53:17;20.60;41.70
21355;DHT22;10835;50.148;19.760;2023-04-22T03:55:45;20.50;41.70
21355;DHT22;10835;50.148;19.760;2023-04-22T03:58:15;20.50;41.90
21355;DHT22;10835;50.148;19.760;2023-04-22T04:00:45;20.70;42.00
21355;DHT22;10835;50.148;19.760;2023-04-22T04:03:16;20.20;41.80
21355;DHT22;10835;50.148;19.760;2023-04-22T04:05:49;20.30;42.40
21355;DHT22;10835;50.148;19.760;2023-04-22T04:08:19;20.30;42.40
21355;DHT22;10835;50.148;19.760;2023-04-22T04:10:47;20.30;42.40
21355;DHT22;10835;50.148;19.760;2023-04-22T04:13:16;20.50;42.80
21355;DHT22;10835;50.148;19.760;2023-04-22T04:16:00;20.70;42.40
21355;DHT22;10835;50.148;19.760;2023-04-22T04:18:30;20.90;42.10
21355;DHT22;10835;50.148;19.760;2023-04-22T04:20:59;21.00;41.90
21355;DHT22;10835;50.148;19.760;2023-04-22T04:23:32;21.00;41.80
21355;DHT22;10835;50.148;19.760;2023-04-22T04:26:01;21.10;41.90
21355;DHT22;10835;50.148;19.760;2023-04-22T04:28:34;21.30;41.90
21355;DHT22;10835;50.148;19.760;2023-04-22T04:31:04;21.40;41.50
21355;DHT22;10835;50.148;19.760;2023-04-22T04:33:32;21.60;41.30
21355;DHT22;10835;50.148;19.760;2023-04-22T04:36:03;21.60;41.10
21355;DHT22;10835;50.148;19.760;2023-04-22T04:38:35;21.30;41.20
21355;DHT22;10835;50.148;19.760;2023-04-22T04:41:04;21.10;41.50
21355;DHT22;10835;50.148;19.760;2023-04-22T04:43:35;21.20;41.80
21355;DHT22;10835;50.148;19.760;2023-04-22T04:46:15;21.30;41.60
21355;DHT22;10835;50.148;19.760;2023-04-22T04:48:45;21.50;41.80
21355;DHT22;10835;50.148;19.760;2023-04-22T04:51:14;21.80;41.50
21355;DHT22;10835;50.148;19.760;2023-04-22T04:53:55;22.10;41.30
21355;DHT22;10835;50.148;19.760;2023-04-22T04:56:27;22.30;41.10
21355;DHT22;10835;50.148;19.760;2023-04-22T04:58:57;22.60;40.80
21355;DHT22;10835;50.148;19.760;2023-04-22T05:01:27;22.80;40.70
21355;DHT22;10835;50.148;19.760;2023-04-22T05:04:01;23.00;40.10
21355;DHT22;10835;50.148;19.760;2023-04-22T05:06:30;23.10;39.80
21355;DHT22;10835;50.148;19.760;2023-04-22T05:09:06;23.20;39.50
21355;DHT22;10835;50.148;19.760;2023-04-22T05:11:35;23.10;39.60
21355;DHT22;10835;50.148;19.760;2023-04-22T05:14:11;23.30;39.50
21355;DHT22;10835;50.148;19.760;2023-04-22T05:16:41;23.50;38.50
21355;DHT22;10835;50.148;19.760;2023-04-22T05:19:10;23.70;38.00
21355;DHT22;10835;50.148;19.760;2023-04-22T05:21:38;23.80;37.60
21355;DHT22;10835;50.148;19.760;2023-04-22T05:24:08;24.00;39.20
21355;DHT22;10835;50.148;19.760;2023-04-22T05:26:36;24.30;38.30
21355;DHT22;10835;50.148;19.760;2023-04-22T05:29:11;24.50;36.70
21355;DHT22;10835;50.148;19.760;2023-04-22T05:31:40;24.60;36.90
21355;DHT22;10835;50.148;19.760;2023-04-22T05:34:08;24.90;38.00
21355;DHT22;10835;50.148;19.760;2023-04-22T05:36:38;25.10;37.50
21355;DHT22;10835;50.148;19.760;2023-04-22T05:39:08;25.30;36.30
21355;DHT22;10835;50.148;19.760;2023-04-22T05:41:37;25.40;36.40
21355;DHT22;10835;50.148;19.760;2023-04-22T05:44:09;25.40;36.40
21355;DHT22;10835;50.148;19.760;2023-04-22T05:46:37;25.50;36.90
21355;DHT22;10835;50.148;19.760;2023-04-22T05:49:06;25.70;36.30
21355;DHT22;10835;50.148;19.760;2023-04-22T05:51:52;25.90;36.80
21355;DHT22;10835;50.148;19.760;2023-04-22T05:54:27;25.80;37.10
21355;DHT22;10835;50.148;19.760;2023-04-22T05:56:56;25.90;37.20
21355;DHT22;10835;50.148;19.760;2023-04-22T05:59:24;25.90;37.70
21355;DHT22;10835;50.148;19.760;2023-04-22T06:01:54;26.20;36.90
21355;DHT22;10835;50.148;19.760;2023-04-22T06:04:22;26.30;36.60
21355;DHT22;10835;50.148;19.760;2023-04-22T06:06:51;26.40;36.60
21355;DHT22;10835;50.148;19.760;2023-04-22T06:09:20;26.50;36.30
21355;DHT22;10835;50.148;19.760;2023-04-22T06:11:51;26.80;35.60
21355;DHT22;10835;50.148;19.760;2023-04-22T06:14:19;26.80;35.20
21355;DHT22;10835;50.148;19.760;2023-04-22T06:16:48;26.70;35.60
21355;DHT22;10835;50.148;19.760;2023-04-22T06:19:18;27.00;35.90
21355;DHT22;10835;50.148;19.760;2023-04-22T06:21:47;27.00;36.70
21355;DHT22;10835;50.148;19.760;2023-04-22T06:24:15;27.10;35.80
21355;DHT22;10835;50.148;19.760;2023-04-22T06:26:44;26.80;35.60
21355;DHT22;10835;50.148;19.760;2023-04-22T06:29:15;27.10;37.20
21355;DHT22;10835;50.148;19.760;2023-04-22T06:31:44;27.40;34.60
21355;DHT22;10835;50.148;19.760;2023-04-22T06:34:12;27.30;34.40
21355;DHT22;10835;50.148;19.760;2023-04-22T06:36:43;27.60;33.90
21355;DHT22;10835;50.148;19.760;2023-04-22T06:39:11;27.80;34.30
21355;DHT22;10835;50.148;19.760;2023-04-22T06:41:47;27.90;33.00
21355;DHT22;10835;50.148;19.760;2023-04-22T06:44:39;27.90;33.10
21355;DHT22;10835;50.148;19.760;2023-04-22T06:47:42;28.10;32.30
21355;DHT22;10835;50.148;19.760;2023-04-22T06:50:19;28.40;32.50
21355;DHT22;10835;50.148;19.760;2023-04-22T06:52:53;28.50;33.70
21355;DHT22;10835;50.148;19.760;2023-04-22T06:55:23;28.60;33.50
21355;DHT22;10835;50.148;19.760;2023-04-22T06:57:54;28.80;30.70
21355;DHT22;10835;50.148;19.760;2023-04-22T07:00:24;28.90;29.40
21355;DHT22;10835;50.148;19.760;2023-04-22T07:02:52;29.00;29.70
21355;DHT22;10835;50.148;19.760;2023-04-22T07:05:21;29.10;29.90
21355;DHT22;10835;50.148;19.760;2023-04-22T07:07:50;29.20;29.50
21355;DHT22;10835;50.148;19.760;2023-04-22T07:10:20;28.60;29.70
21355;DHT22;10835;50.148;19.760;2023-04-22T07:13:10;29.00;28.90
21355;DHT22;10835;50.148;19.760;2023-04-22T07:15:40;29.20;27.70
21355;DHT22;10835;50.148;19.760;2023-04-22T07:18:08;29.40;29.50
21355;DHT22;10835;50.148;19.760;2023-04-22T07:20:36;29.40;29.40
21355;DHT22;10835;50.148;19.760;2023-04-22T07:23:05;28.70;29.90
21355;DHT22;10835;50.148;19.760;2023-04-22T07:25:36;29.20;30.10
21355;DHT22;10835;50.148;19.760;2023-04-22T07:28:06;29.40;28.20
21355;DHT22;10835;50.148;19.760;2023-04-22T07:30:34;29.50;28.90
21355;DHT22;10835;50.148;19.760;2023-04-22T07:33:04;29.60;28.30
21355;DHT22;10835;50.148;19.760;2023-04-22T07:35:32;29.70;28.90
21355;DHT22;10835;50.148;19.760;2023-04-22T07:38:00;29.50;30.00
21355;DHT22;10835;50.148;19.760;2023-04-22T07:40:29;29.70;30.30
21355;DHT22;10835;50.148;19.760;2023-04-22T07:42:57;29.60;30.00
21355;DHT22;10835;50.148;19.760;2023-04-22T07:45:25;29.20;31.80
21355;DHT22;10835;50.148;19.760;2023-04-22T07:47:54;29.70;31.80
21355;DHT22;10835;50.148;19.760;2023-04-22T07:50:23;29.80;30.10
21355;DHT22;10835;50.148;19.760;2023-04-22T07:52:52;29.90;30.00
21355;DHT22;10835;50.148;19.760;2023-04-22T07:55:23;30.10;30.20
21355;DHT22;10835;50.148;19.760;2023-04-22T07:57:51;30.10;31.00
21355;DHT22;10835;50.148;19.760;2023-04-22T08:00:19;30.30;30.50
21355;DHT22;10835;50.148;19.760;2023-04-22T08:02:47;29.90;30.70
21355;DHT22;10835;50.148;19.760;2023-04-22T08:05:17;30.30;30.30
21355;DHT22;10835;50.148;19.760;2023-04-22T08:07:47;30.60;31.60
21355;DHT22;10835;50.148;19.760;2023-04-22T08:10:15;30.90;31.40
21355;DHT22;10835;50.148;19.760;2023-04-22T08:12:43;31.00;29.70
21355;DHT22;10835;50.148;19.760;2023-04-22T08:15:11;31.00;30.10
21355;DHT22;10835;50.148;19.760;2023-04-22T08:17:40;30.90;30.20
21355;DHT22;10835;50.148;19.760;2023-04-22T08:20:08;31.10;29.20
21355;DHT22;10835;50.148;19.760;2023-04-22T08:22:37;31.20;29.20
21355;DHT22;10835;50.148;19.760;2023-04-22T08:25:08;31.30;28.50
21355;DHT22;10835;50.148;19.760;2023-04-22T08:27:36;31.40;28.40
21355;DHT22;10835;50.148;19.760;2023-04-22T08:30:06;31.30;28.00
21355;DHT22;10835;50.148;19.760;2023-04-22T08:32:35;31.60;28.60
21355;DHT22;10835;50.148;19.760;2023-04-22T08:35:04;31.30;27.60
21355;DHT22;10835;50.148;19.760;2023-04-22T08:37:36;31.50;26.60
21355;DHT22;10835;50.148;19.760;2023-04-22T08:40:08;31.50;26.90
21355;DHT22;10835;50.148;19.760;2023-04-22T08:42:36;31.60;27.50
21355;DHT22;10835;50.148;19.760;2023-04-22T08:45:05;31.70;26.80
21355;DHT22;10835;50.148;19.760;2023-04-22T08:47:36;31.70;26.50
21355;DHT22;10835;50.148;19.760;2023-04-22T08:50:06;31.10;26.60
21355;DHT22;10835;50.148;19.760;2023-04-22T08:52:36;31.00;26.50
21355;DHT22;10835;50.148;19.760;2023-04-22T08:55:07;31.50;25.40
21355;DHT22;10835;50.148;19.760;2023-04-22T08:57:37;31.80;25.70
21355;DHT22;10835;50.148;19.760;2023-04-22T09:00:07;32.00;26.20
21355;DHT22;10835;50.148;19.760;2023-04-22T09:02:36;31.90;25.00
21355;DHT22;10835;50.148;19.760;2023-04-22T09:05:05;31.30;25.70
21355;DHT22;10835;50.148;19.760;2023-04-22T09:07:37;31.50;26.30
21355;DHT22;10835;50.148;19.760;2023-04-22T09:10:09;30.80;25.80
21355;DHT22;10835;50.148;19.760;2023-04-22T09:12:39;31.40;25.90
21355;DHT22;10835;50.148;19.760;2023-04-22T09:15:09;31.00;25.70
21355;DHT22;10835;50.148;19.760;2023-04-22T09:17:37;31.10;26.60
21355;DHT22;10835;50.148;19.760;2023-04-22T09:20:07;31.50;25.30
21355;DHT22;10835;50.148;19.760;2023-04-22T09:22:38;31.20;25.10
21355;DHT22;10835;50.148;19.760;2023-04-22T09:25:18;31.50;25.30
21355;DHT22;10835;50.148;19.760;2023-04-22T09:27:50;31.60;26.20
21355;DHT22;10835;50.148;19.760;2023-04-22T09:30:22;31.50;25.20
21355;DHT22;10835;50.148;19.760;2023-04-22T09:32:52;31.40;25.40
21355;DHT22;10835;50.148;19.760;2023-04-22T09:35:28;30.60;25.00
21355;DHT22;10835;50.148;19.760;2023-04-22T09:37:58;30.90;27.10
21355;DHT22;10835;50.148;19.760;2023-04-22T09:40:29;31.20;26.40
21355;DHT22;10835;50.148;19.760;2023-04-22T09:43:00;31.00;26.40
21355;DHT22;10835;50.148;19.760;2023-04-22T09:45:30;31.10;25.70
21355;DHT22;10835;50.148;19.760;2023-04-22T09:48:04;31.40;26.80
21355;DHT22;10835;50.148;19.760;2023-04-22T09:50:33;31.60;25.50
21355;DHT22;10835;50.148;19.760;2023-04-22T09:53:03;31.70;26.30
21355;DHT22;10835;50.148;19.760;2023-04-22T09:55:35;31.90;26.30
21355;DHT22;10835;50.148;19.760;2023-04-22T09:58:05;31.60;25.60
21355;DHT22;10835;50.148;19.760;2023-04-22T10:00:36;31.30;25.70
21355;DHT22;10835;50.148;19.760;2023-04-22T10:03:06;31.50;25.90
21355;DHT22;10835;50.148;19.760;2023-04-22T10:05:37;31.40;26.20
21355;DHT22;10835;50.148;19.760;2023-04-22T10:08:06;31.60;25.60
21355;DHT22;10835;50.148;19.760;2023-04-22T10:10:37;31.80;25.80
21355;DHT22;10835;50.148;19.760;2023-04-22T10:13:06;31.50;26.00
21355;DHT22;10835;50.148;19.760;2023-04-22T10:15:38;31.80;24.80
21355;DHT22;10835;50.148;19.760;2023-04-22T10:18:09;31.80;25.70
21355;DHT22;10835;50.148;19.760;2023-04-22T10:20:42;32.00;25.70
21355;DHT22;10835;50.148;19.760;2023-04-22T10:23:14;32.10;25.50
21355;DHT22;10835;50.148;19.760;2023-04-22T10:25:46;32.20;25.30
21355;DHT22;10835;50.148;19.760;2023-04-22T10:28:16;32.30;25.40
21355;DHT22;10835;50.148;19.760;2023-04-22T10:30:47;32.10;25.60
21355;DHT22;10835;50.148;19.760;2023-04-22T10:33:34;32.30;26.20
21355;DHT22;10835;50.148;19.760;2023-04-22T10:36:08;32.10;24.60
21355;DHT22;10835;50.148;19.760;2023-04-22T10:38:37;31.90;25.70
21355;DHT22;10835;50.148;19.760;2023-04-22T10:41:12;32.20;25.20
21355;DHT22;10835;50.148;19.760;2023-04-22T10:43:42;32.40;25.60
21355;DHT22;10835;50.148;19.760;2023-04-22T10:49:17;32.30;24.80
21355;DHT22;10835;50.148;19.760;2023-04-22T10:51:48;32.40;24.50
21355;DHT22;10835;50.148;19.760;2023-04-22T10:54:55;32.60;24.10
21355;DHT22;10835;50.148;19.760;2023-04-22T10:57:29;32.70;24.30
21355;DHT22;10835;50.148;19.760;2023-04-22T11:00:29;32.50;24.70
21355;DHT22;10835;50.148;19.760;2023-04-22T11:03:09;32.60;25.10
21355;DHT22;10835;50.148;19.760;2023-04-22T11:05:38;32.60;25.80
21355;DHT22;10835;50.148;19.760;2023-04-22T11:08:11;32.60;24.90
21355;DHT22;10835;50.148;19.760;2023-04-22T11:10:43;32.70;24.80
21355;DHT22;10835;50.148;19.760;2023-04-22T11:13:15;32.70;24.00
21355;DHT22;10835;50.148;19.760;2023-04-22T11:15:46;32.60;25.40
21355;DHT22;10835;50.148;19.760;2023-04-22T11:18:17;32.90;24.40
21355;DHT22;10835;50.148;19.760;2023-04-22T11:20:46;32.80;25.90
21355;DHT22;10835;50.148;19.760;2023-04-22T11:23:20;32.70;24.80
21355;DHT22;10835;50.148;19.760;2023-04-22T11:25:54;32.90;25.20
21355;DHT22;10835;50.148;19.760;2023-04-22T11:28:25;32.90;24.80
21355;DHT22;10835;50.148;19.760;2023-04-22T11:31:00;32.80;24.40
21355;DHT22;10835;50.148;19.760;2023-04-22T11:33:30;32.40;24.80
21355;DHT22;10835;50.148;19.760;2023-04-22T11:35:58;32.20;25.60
21355;DHT22;10835;50.148;19.760;2023-04-22T11:38:27;32.30;24.60
21355;DHT22;10835;50.148;19.760;2023-04-22T11:40:55;32.60;24.20
21355;DHT22;10835;50.148;19.760;2023-04-22T11:43:25;32.20;24.60
21355;DHT22;10835;50.148;19.760;2023-04-22T11:45:55;32.40;24.40
21355;DHT22;10835;50.148;19.760;2023-04-22T11:48:24;32.70;25.40
21355;DHT22;10835;50.148;19.760;2023-04-22T11:51:07;32.70;25.90
21355;DHT22;10835;50.148;19.760;2023-04-22T11:53:36;32.50;25.20
21355;DHT22;10835;50.148;19.760;2023-04-22T11:56:07;32.00;25.20
21355;DHT22;10835;50.148;19.760;2023-04-22T11:58:38;32.50;24.40
21355;DHT22;10835;50.148;19.760;2023-04-22T12:01:11;32.70;23.90
21355;DHT22;10835;50.148;19.760;2023-04-22T12:03:42;32.60;23.60
21355;DHT22;10835;50.148;19.760;2023-04-22T12:06:11;32.50;24.80
21355;DHT22;10835;50.148;19.760;2023-04-22T12:08:41;32.50;25.10
21355;DHT22;10835;50.148;19.760;2023-04-22T12:11:11;32.70;24.90
21355;DHT22;10835;50.148;19.760;2023-04-22T12:13:42;32.70;24.80
21355;DHT22;10835;50.148;19.760;2023-04-22T12:16:13;32.90;24.30
21355;DHT22;10835;50.148;19.760;2023-04-22T12:18:48;32.90;23.00
21355;DHT22;10835;50.148;19.760;2023-04-22T12:21:19;32.00;23.50
21355;DHT22;10835;50.148;19.760;2023-04-22T12:23:50;32.40;26.00
21355;DHT22;10835;50.148;19.760;2023-04-22T12:26:21;32.30;24.00
21355;DHT22;10835;50.148;19.760;2023-04-22T12:28:55;31.40;24.20
21355;DHT22;10835;50.148;19.760;2023-04-22T12:31:24;32.00;24.20
21355;DHT22;10835;50.148;19.760;2023-04-22T12:33:53;32.20;24.80
21355;DHT22;10835;50.148;19.760;2023-04-22T12:36:22;32.20;24.70
21355;DHT22;10835;50.148;19.760;2023-04-22T12:38:52;31.60;24.80
21355;DHT22;10835;50.148;19.760;2023-04-22T12:41:20;32.10;24.20
21355;DHT22;10835;50.148;19.760;2023-04-22T12:43:49;32.30;25.60
21355;DHT22;10835;50.148;19.760;2023-04-22T12:46:20;32.40;24.20
21355;DHT22;10835;50.148;19.760;2023-04-22T12:48:48;32.30;23.70
21355;DHT22;10835;50.148;19.760;2023-04-22T12:51:16;32.70;23.70
21355;DHT22;10835;50.148;19.760;2023-04-22T12:53:44;32.70;23.90
21355;DHT22;10835;50.148;19.760;2023-04-22T12:56:13;32.90;24.20
21355;DHT22;10835;50.148;19.760;2023-04-22T12:58:41;33.00;24.60
21355;DHT22;10835;50.148;19.760;2023-04-22T13:01:09;33.10;24.40
21355;DHT22;10835;50.148;19.760;2023-04-22T13:03:39;33.20;23.80
21355;DHT22;10835;50.148;19.760;2023-04-22T13:06:07;33.30;23.00
21355;DHT22;10835;50.148;19.760;2023-04-22T13:08:36;33.10;23.60
21355;DHT22;10835;50.148;19.760;2023-04-22T13:11:04;33.30;23.80
21355;DHT22;10835;50.148;19.760;2023-04-22T13:13:33;33.40;24.40
21355;DHT22;10835;50.148;19.760;2023-04-22T13:16:01;33.30;23.70
21355;DHT22;10835;50.148;19.760;2023-04-22T13:18:30;32.50;25.40
21355;DHT22;10835;50.148;19.760;2023-04-22T13:20:59;32.00;24.20
21355;DHT22;10835;50.148;19.760;2023-04-22T13:23:28;31.80;24.50
21355;DHT22;10835;50.148;19.760;2023-04-22T13:25:56;31.90;25.30
21355;DHT22;10835;50.148;19.760;2023-04-22T13:28:24;32.00;24.40
21355;DHT22;10835;50.148;19.760;2023-04-22T13:30:56;32.60;24.40
21355;DHT22;10835;50.148;19.760;2023-04-22T13:33:24;32.20;24.20
21355;DHT22;10835;50.148;19.760;2023-04-22T13:35:52;32.80;24.70
21355;DHT22;10835;50.148;19.760;2023-04-22T13:38:22;33.00;23.80
21355;DHT22;10835;50.148;19.760;2023-04-22T13:40:50;33.20;23.30
21355;DHT22;10835;50.148;19.760;2023-04-22T13:43:18;32.90;24.00
21355;DHT22;10835;50.148;19.760;2023-04-22T13:45:46;33.10;23.40
21355;DHT22;10835;50.148;19.760;2023-04-22T13:48:15;33.20;23.20
21355;DHT22;10835;50.148;19.760;2023-04-22T13:50:43;33.10;24.00
21355;DHT22;10835;50.148;19.760;2023-04-22T13:53:12;32.90;23.80
21355;DHT22;10835;50.148;19.760;2023-04-22T13:55:42;32.70;23.00
21355;DHT22;10835;50.148;19.760;2023-04-22T13:58:13;32.30;24.00
21355;DHT22;10835;50.148;19.760;2023-04-22T14:00:41;32.20;24.60
21355;DHT22;10835;50.148;19.760;2023-04-22T14:03:10;32.60;24.80
21355;DHT22;10835;50.148;19.760;2023-04-22T14:05:38;32.80;24.50
21355;DHT22;10835;50.148;19.760;2023-04-22T14:08:07;33.00;24.80
21355;DHT22;10835;50.148;19.760;2023-04-22T14:10:35;32.60;23.80
21355;DHT22;10835;50.148;19.760;2023-04-22T14:13:07;33.00;23.90
21355;DHT22;10835;50.148;19.760;2023-04-22T14:15:37;33.20;23.40
21355;DHT22;10835;50.148;19.760;2023-04-22T14:18:05;33.40;23.60
21355;DHT22;10835;50.148;19.760;2023-04-22T14:20:33;33.40;22.80
21355;DHT22;10835;50.148;19.760;2023-04-22T14:23:04;33.40;23.10
21355;DHT22;10835;50.148;19.760;2023-04-22T14:25:33;33.50;24.00
21355;DHT22;10835;50.148;19.760;2023-04-22T14:28:01;33.50;24.40
21355;DHT22;10835;50.148;19.760;2023-04-22T14:30:31;33.50;22.90
21355;DHT22;10835;50.148;19.760;2023-04-22T14:33:02;32.80;23.60
21355;DHT22;10835;50.148;19.760;2023-04-22T14:35:32;33.10;24.60
21355;DHT22;10835;50.148;19.760;2023-04-22T14:38:02;33.20;23.90
21355;DHT22;10835;50.148;19.760;2023-04-22T14:40:31;33.20;23.70
21355;DHT22;10835;50.148;19.760;2023-04-22T14:43:03;33.10;24.10
21355;DHT22;10835;50.148;19.760;2023-04-22T14:45:36;33.30;24.20
21355;DHT22;10835;50.148;19.760;2023-04-22T14:48:04;33.20;25.00
21355;DHT22;10835;50.148;19.760;2023-04-22T14:50:33;33.40;24.50
21355;DHT22;10835;50.148;19.760;2023-04-22T14:53:01;33.50;24.60
21355;DHT22;10835;50.148;19.760;2023-04-22T14:55:30;33.60;24.00
21355;DHT22;10835;50.148;19.760;2023-04-22T14:57:58;33.50;23.50
21355;DHT22;10835;50.148;19.760;2023-04-22T15:00:27;33.40;23.40
21355;DHT22;10835;50.148;19.760;2023-04-22T15:02:56;33.30;23.90
21355;DHT22;10835;50.148;19.760;2023-04-22T15:05:25;33.30;23.20
21355;DHT22;10835;50.148;19.760;2023-04-22T15:07:56;33.30;24.20
21355;DHT22;10835;50.148;19.760;2023-04-22T15:10:25;33.40;24.00
21355;DHT22;10835;50.148;19.760;2023-04-22T15:12:54;33.40;24.30
21355;DHT22;10835;50.148;19.760;2023-04-22T15:15:22;33.30;23.90
21355;DHT22;10835;50.148;19.760;2023-04-22T15:17:50;33.30;24.20
21355;DHT22;10835;50.148;19.760;2023-04-22T15:20:20;33.30;23.90
21355;DHT22;10835;50.148;19.760;2023-04-22T15:22:48;33.30;24.30
21355;DHT22;10835;50.148;19.760;2023-04-22T15:25:16;33.30;23.80
21355;DHT22;10835;50.148;19.760;2023-04-22T15:27:45;33.30;24.10
21355;DHT22;10835;50.148;19.760;2023-04-22T15:30:14;33.40;24.10
21355;DHT22;10835;50.148;19.760;2023-04-22T15:32:42;33.30;24.20
21355;DHT22;10835;50.148;19.760;2023-04-22T15:35:10;33.30;24.10
21355;DHT22;10835;50.148;19.760;2023-04-22T15:37:40;33.20;23.70